Time;durP1;ratioP1;P1;durP2;ratioP2;P2;SDS_P1;SDS_P2;PMS_P1;PMS_P2;Temp;Humidity;BMP_temperature;BMP_pressure;BME280_temperature;BME280_humidity;BME280_pressure;Samples;Min_cycle;Max_cycle;Signal;HPM_P1;HPM_P2
2023/07/06 00:04:49;;;;;;;8.73;6.13;;;;;;;40.52;13.92;100276.69;4932877;28;20404;-75
2023/07/06 00:07:21;;;;;;;8.95;6.78;;;;;;;40.49;12.87;100277.88;4928149;29;20573;-75
2023/07/06 00:09:51;;;;;;;7.03;6.30;;;;;;;40.45;13.39;100275.66;4928959;29;20051;-75
2023/07/06 00:12:22;;;;;;;9.55;6.80;;;;;;;40.41;12.39;100273.28;4940348;29;20084;-77
2023/07/06 00:14:51;;;;;;;;;;;;;;;40.36;13.53;100267.50;4931064;29;20051;-78
2023/07/06 00:17:21;;;;;;;7.88;6.45;;;;;;;40.31;13.75;100267.09;4924442;29;19926;-75
2023/07/06 00:19:56;;;;;;;8.50;6.40;;;;;;;40.22;12.46;100266.16;4935419;29;20119;-77
2023/07/06 00:22:25;;;;;;;9.10;6.95;;;;;;;40.13;12.43;100267.09;4928614;29;20134;-76
2023/07/06 00:24:53;;;;;;;7.55;6.60;;;;;;;40.13;12.60;100256.25;4928631;29;20111;-80
2023/07/06 00:27:22;;;;;;;8.82;6.72;;;;;;;40.15;12.24;100264.25;4928701;29;20056;-74
2023/07/06 00:30:15;;;;;;;9.35;6.75;;;;;;;40.09;12.43;100262.16;4929583;29;20059;-76
2023/07/06 00:32:44;;;;;;;8.15;7.35;;;;;;;39.93;12.77;100261.06;4929899;29;20044;-77
2023/07/06 00:35:15;;;;;;;8.00;6.65;;;;;;;39.90;13.65;100257.78;4929061;29;20051;-77
2023/07/06 00:37:44;;;;;;;7.60;6.15;;;;;;;39.84;13.42;100250.28;4928563;29;20060;-76
2023/07/06 00:40:14;;;;;;;9.20;7.35;;;;;;;39.77;12.68;100252.78;4927566;29;20051;-76
2023/07/06 00:42:44;;;;;;;9.98;7.53;;;;;;;39.68;12.03;100251.00;4930253;29;20047;-75
2023/07/06 00:45:13;;;;;;;7.15;6.22;;;;;;;39.61;12.50;100250.78;4927541;29;20144;-76
2023/07/06 00:47:49;;;;;;;7.13;6.32;;;;;;;39.60;13.36;100243.63;4918375;29;20063;-77
2023/07/06 00:50:22;;;;;;;8.02;6.10;;;;;;;39.52;13.55;100246.28;4912320;29;20056;-75
2023/07/06 00:52:59;;;;;;;9.23;6.57;;;;;;;39.36;13.13;100236.97;4914890;29;20520;-75
2023/07/06 00:55:31;;;;;;;8.00;6.93;;;;;;;39.29;12.80;100246.72;4912679;29;20059;-74
2023/07/06 00:58:03;;;;;;;9.70;6.63;;;;;;;39.20;13.33;100235.97;4913467;29;20052;-74
2023/07/06 01:00:32;;;;;;;6.95;6.25;;;;;;;39.20;13.71;100239.50;4916758;29;20564;-76
2023/07/06 01:03:03;;;;;;;8.20;6.65;;;;;;;39.08;12.28;100243.41;4927112;29;20048;-74
2023/07/06 01:05:33;;;;;;;;;;;;;;;39.03;13.72;100245.72;4922011;28;20055;-75
2023/07/06 01:08:10;;;;;;;7.38;6.55;;;;;;;38.99;14.06;100244.31;4913566;29;19934;-78
2023/07/06 01:10:40;;;;;;;7.53;6.60;;;;;;;38.89;13.21;100234.38;4909940;29;20051;-78
2023/07/06 01:13:09;;;;;;;7.80;7.00;;;;;;;38.83;14.59;100234.13;4916937;29;20706;-78
2023/07/06 01:15:43;;;;;;;8.00;6.20;;;;;;;38.78;13.34;100240.00;4912772;29;20071;-76
2023/07/06 01:18:20;;;;;;;8.68;6.60;;;;;;;38.72;14.54;100243.31;4915273;29;20052;-78
2023/07/06 01:20:58;;;;;;;9.23;6.60;;;;;;;38.69;14.55;100240.91;4909653;29;20510;-75
2023/07/06 01:24:01;;;;;;;7.72;6.45;;;;;;;38.60;14.25;100237.25;4910743;29;20044;-78
2023/07/06 01:26:47;;;;;;;8.68;6.78;;;;;;;38.52;14.37;100237.97;4919646;29;20509;-80
2023/07/06 01:29:45;;;;;;;9.20;6.55;;;;;;;38.37;13.89;100231.34;4918893;29;20577;-76
2023/07/06 01:32:20;;;;;;;7.65;6.65;;;;;;;38.27;13.99;100233.22;4921103;29;20513;-76
2023/07/06 01:34:57;;;;;;;10.32;6.57;;;;;;;38.22;14.89;100240.91;4913719;29;20497;-74
2023/07/06 01:37:30;;;;;;;8.85;7.05;;;;;;;38.15;13.67;100235.25;4914821;29;20056;-76
2023/07/06 01:40:01;;;;;;;9.48;7.05;;;;;;;38.09;14.69;100243.91;4909455;29;20055;-76
2023/07/06 01:42:34;;;;;;;9.45;7.32;;;;;;;38.04;15.74;100238.94;4921104;29;20082;-77
2023/07/06 01:45:07;;;;;;;9.07;7.93;;;;;;;37.98;14.61;100242.22;4912532;29;20052;-78
2023/07/06 01:47:41;;;;;;;7.55;6.75;;;;;;;37.88;14.42;100233.25;4913631;29;20568;-78
2023/07/06 01:50:13;;;;;;;12.18;8.07;;;;;;;37.90;14.24;100244.78;4913193;29;20044;-78
2023/07/06 01:53:00;;;;;;;10.23;7.53;;;;;;;37.86;14.68;100238.78;4915606;29;20063;-77
2023/07/06 01:55:35;;;;;;;10.25;7.50;;;;;;;37.80;15.62;100246.63;4925704;29;20052;-77
2023/07/06 01:58:11;;;;;;;10.93;7.28;;;;;;;37.72;15.68;100247.34;4922192;29;20066;-75
2023/07/06 02:00:50;;;;;;;8.77;7.28;;;;;;;37.64;15.36;100239.97;4915070;29;20143;-75
2023/07/06 02:03:21;;;;;;;10.82;7.13;;;;;;;37.59;15.89;100255.75;4912570;28;20056;-78
2023/07/06 02:05:50;;;;;;;7.78;6.53;;;;;;;37.50;16.01;100249.31;4882101;29;20093;-78
2023/07/06 02:08:20;;;;;;;11.52;7.38;;;;;;;37.40;15.72;100256.53;4885469;29;20137;-77
2023/07/06 02:10:48;;;;;;;11.23;7.47;;;;;;;37.25;16.29;100244.47;4882890;29;20124;-78
2023/07/06 02:13:17;;;;;;;9.52;7.20;;;;;;;37.02;16.38;100249.19;4890518;29;20136;-80
2023/07/06 02:15:46;;;;;;;13.88;7.65;;;;;;;36.89;16.83;100253.00;4890528;29;20084;-77
2023/07/06 02:18:14;;;;;;;10.23;6.82;;;;;;;36.83;17.33;100247.28;4886157;29;20049;-76
2023/07/06 02:20:47;;;;;;;9.52;7.22;;;;;;;36.73;17.88;100268.81;4887434;29;20074;-78
2023/07/06 02:23:18;;;;;;;9.70;7.15;;;;;;;36.63;18.08;100263.41;4891590;29;20041;-77
2023/07/06 02:25:46;;;;;;;10.77;7.32;;;;;;;36.55;18.04;100251.56;4884978;29;20131;-78
2023/07/06 02:28:15;;;;;;;11.65;8.15;;;;;;;36.41;18.30;100264.38;4887534;29;20045;-77
2023/07/06 02:30:45;;;;;;;11.68;7.18;;;;;;;36.28;17.98;100259.19;4890831;29;20144;-75
2023/07/06 02:33:14;;;;;;;11.05;7.13;;;;;;;36.16;18.69;100268.34;4892082;29;20720;-77
2023/07/06 02:35:45;;;;;;;10.27;7.07;;;;;;;36.06;18.82;100265.56;4881752;29;20498;-77
2023/07/06 02:38:15;;;;;;;8.40;6.85;;;;;;;35.94;19.21;100263.06;4897998;29;20343;-76
2023/07/06 02:40:43;;;;;;;10.00;6.90;;;;;;;35.85;19.01;100259.31;4892533;29;20056;-75
2023/07/06 02:43:12;;;;;;;10.63;7.50;;;;;;;35.77;19.76;100264.50;4885478;29;20053;-80
2023/07/06 02:45:41;;;;;;;10.02;7.32;;;;;;;35.68;20.18;100265.28;4894773;29;20045;-77
2023/07/06 02:48:09;;;;;;;9.35;7.07;;;;;;;35.57;20.31;100264.28;4896032;29;20100;-77
2023/07/06 02:50:38;;;;;;;15.77;7.18;;;;;;;35.41;19.39;100267.38;4886565;29;20104;-75
2023/07/06 02:53:08;;;;;;;9.18;6.82;;;;;;;35.26;20.45;100265.13;4884111;29;20048;-76
2023/07/06 02:55:37;;;;;;;9.55;7.25;;;;;;;35.14;20.01;100261.59;4871124;29;20087;-75
2023/07/06 02:58:09;;;;;;;10.35;7.10;;;;;;;34.97;20.75;100271.00;4891153;29;20430;-76
2023/07/06 03:00:37;;;;;;;11.48;7.00;;;;;;;34.82;20.74;100276.66;4889783;29;20136;-76
2023/07/06 03:03:09;;;;;;;8.85;7.47;;;;;;;34.67;21.34;100280.53;4891808;29;20494;-75
2023/07/06 03:05:37;;;;;;;10.88;7.07;;;;;;;34.55;21.12;100276.13;4908361;28;20067;-73
2023/07/06 03:08:10;;;;;;;10.88;7.32;;;;;;;34.42;20.29;100282.44;4911312;29;20525;-74
2023/07/06 03:10:39;;;;;;;11.05;7.32;;;;;;;34.27;21.72;100288.16;4908001;29;20083;-75
2023/07/06 03:13:07;;;;;;;10.88;6.85;;;;;;;34.12;21.90;100284.81;4912254;29;20044;-73
2023/07/06 03:15:36;;;;;;;10.15;7.32;;;;;;;33.98;21.92;100284.03;4910412;29;20048;-72
2023/07/06 03:18:05;;;;;;;10.77;7.72;;;;;;;33.81;21.25;100292.47;4909554;29;20545;-74
2023/07/06 03:20:35;;;;;;;10.65;7.60;;;;;;;33.64;21.27;100288.38;4911185;29;20075;-76
2023/07/06 03:23:06;;;;;;;10.30;7.43;;;;;;;33.49;21.27;100284.13;4910563;29;20056;-73
2023/07/06 03:25:36;;;;;;;10.82;6.85;;;;;;;33.33;21.87;100292.44;4910425;29;20052;-73
2023/07/06 03:28:07;;;;;;;12.07;7.05;;;;;;;33.16;21.66;100291.00;4908191;29;20049;-76
2023/07/06 03:30:35;;;;;;;11.20;7.55;;;;;;;33.00;22.44;100287.69;4911966;29;20058;-73
2023/07/06 03:33:04;;;;;;;10.63;7.03;;;;;;;32.85;22.02;100297.66;4909198;29;20057;-73
2023/07/06 03:35:33;;;;;;;9.95;7.47;;;;;;;32.66;21.91;100295.44;4913051;29;20127;-73
2023/07/06 03:38:01;;;;;;;10.52;7.57;;;;;;;32.50;21.93;100293.78;4922280;29;20111;-75
2023/07/06 03:40:31;;;;;;;9.40;7.13;;;;;;;32.36;22.46;100293.91;4914910;29;20445;-78
2023/07/06 03:43:02;;;;;;;10.57;6.97;;;;;;;32.24;21.58;100302.78;4911046;29;20056;-73
2023/07/06 03:45:31;;;;;;;8.80;7.25;;;;;;;32.09;22.20;100304.66;4915105;29;20505;-73
2023/07/06 03:48:00;;;;;;;10.50;7.88;;;;;;;31.94;21.14;100312.75;4911670;29;20781;-76
2023/07/06 03:50:31;;;;;;;8.95;7.22;;;;;;;31.83;21.72;100301.91;4911341;29;20056;-78
2023/07/06 03:53:00;;;;;;;8.70;6.45;;;;;;;31.73;22.04;100314.19;4909997;29;20116;-76
2023/07/06 03:55:29;;;;;;;9.32;6.40;;;;;;;31.64;21.80;100312.97;4909174;29;20114;-74
2023/07/06 03:58:00;;;;;;;12.38;7.35;;;;;;;31.51;22.46;100318.25;4912042;29;20139;-75
2023/07/06 04:00:30;;;;;;;12.45;7.70;;;;;;;31.41;22.07;100319.81;4913534;29;20064;-77
2023/07/06 04:03:00;;;;;;;10.18;6.70;;;;;;;31.33;21.93;100322.06;4910253;29;20051;-75
2023/07/06 04:05:32;;;;;;;11.57;6.78;;;;;;;31.19;22.48;100319.44;4908207;28;20653;-74
2023/07/06 04:08:03;;;;;;;;;;;;;;;31.08;21.99;100329.00;4910258;29;20135;-76
2023/07/06 04:10:33;;;;;;;7.60;6.20;;;;;;;30.96;21.47;100334.25;4908446;29;20365;-74
2023/07/06 04:13:04;;;;;;;9.38;6.25;;;;;;;30.88;22.12;100342.75;4910530;29;20054;-74
2023/07/06 04:15:34;;;;;;;9.93;6.90;;;;;;;30.80;22.17;100351.19;4912343;29;20054;-76
2023/07/06 04:18:03;;;;;;;9.13;7.03;;;;;;;30.67;21.69;100350.22;4908820;29;20052;-73
2023/07/06 04:20:34;;;;;;;10.35;7.05;;;;;;;30.56;21.74;100353.56;4912189;29;20054;-76
2023/07/06 04:23:02;;;;;;;8.30;6.67;;;;;;;30.48;21.57;100350.47;4913206;29;20055;-74
2023/07/06 04:25:33;;;;;;;11.77;6.75;;;;;;;30.40;21.99;100360.78;4909959;29;20052;-73
2023/07/06 04:28:05;;;;;;;10.15;6.55;;;;;;;30.36;22.02;100368.09;4925071;29;20575;-73
2023/07/06 04:30:35;;;;;;;8.65;6.93;;;;;;;30.30;22.28;100371.09;4913946;29;20056;-75
2023/07/06 04:33:06;;;;;;;9.30;6.57;;;;;;;30.21;22.51;100375.13;4906736;29;20056;-75
2023/07/06 04:35:37;;;;;;;9.68;6.97;;;;;;;30.13;21.61;100377.41;4911543;29;20050;-76
2023/07/06 04:38:06;;;;;;;9.20;6.32;;;;;;;30.06;22.54;100378.72;4911705;29;20060;-72
2023/07/06 04:40:35;;;;;;;13.45;6.78;;;;;;;30.00;22.48;100387.06;4909273;29;20486;-75
2023/07/06 04:43:05;;;;;;;7.93;6.07;;;;;;;29.92;21.63;100386.66;4908147;29;20136;-76
2023/07/06 04:45:34;;;;;;;8.27;6.55;;;;;;;29.82;22.35;100384.50;4907673;29;20498;-78
2023/07/06 04:48:03;;;;;;;9.60;6.50;;;;;;;29.74;22.30;100397.41;4909536;29;20044;-75
2023/07/06 04:50:31;;;;;;;9.73;6.13;;;;;;;29.68;22.31;100392.41;4911052;29;20067;-77
2023/07/06 04:53:03;;;;;;;9.35;6.65;;;;;;;29.63;22.48;100399.78;4910305;29;20046;-75
2023/07/06 04:55:32;;;;;;;8.85;5.95;;;;;;;29.56;22.58;100403.75;4909346;29;20052;-76
2023/07/06 04:58:05;;;;;;;8.57;5.70;;;;;;;29.51;22.33;100404.00;4911033;29;20056;-76
2023/07/06 05:00:39;;;;;;;10.60;6.72;;;;;;;29.44;22.28;100410.63;4909045;29;20054;-77
2023/07/06 05:03:09;;;;;;;7.07;5.63;;;;;;;29.38;22.37;100401.13;4907405;29;20080;-78
2023/07/06 05:05:40;;;;;;;9.35;5.70;;;;;;;29.34;22.80;100412.91;4908842;28;20123;-76
2023/07/06 05:08:09;;;;;;;7.30;5.15;;;;;;;29.30;22.26;100410.47;4909518;29;20059;-74
2023/07/06 05:10:38;;;;;;;7.47;5.35;;;;;;;29.28;23.72;100417.72;4909869;29;20036;-75
2023/07/06 05:13:08;;;;;;;8.43;5.60;;;;;;;29.21;22.22;100417.19;4911264;29;20052;-76
2023/07/06 05:15:38;;;;;;;7.78;5.72;;;;;;;29.15;22.43;100417.50;4907060;29;20056;-74
2023/07/06 05:18:08;;;;;;;8.18;5.32;;;;;;;29.13;22.40;100416.72;4923261;29;20116;-76
2023/07/06 05:20:36;;;;;;;7.63;5.90;;;;;;;29.10;22.40;100422.22;4916421;29;20672;-77
2023/07/06 05:23:07;;;;;;;10.00;5.93;;;;;;;29.08;22.09;100424.09;4918889;29;20068;-75
2023/07/06 05:25:38;;;;;;;7.90;5.30;;;;;;;29.07;22.04;100427.66;4915628;29;20060;-74
2023/07/06 05:28:11;;;;;;;8.52;5.43;;;;;;;29.03;22.12;100435.81;4913805;29;20052;-81
2023/07/06 05:30:41;;;;;;;7.88;5.28;;;;;;;29.03;21.75;100435.81;4921654;29;20637;-80
2023/07/06 05:33:10;;;;;;;7.43;5.22;;;;;;;29.00;22.30;100438.66;4919429;29;20051;-76
2023/07/06 05:35:41;;;;;;;7.50;5.25;;;;;;;28.97;22.02;100433.47;4915875;29;20058;-80
2023/07/06 05:38:10;;;;;;;8.43;5.53;;;;;;;28.96;21.77;100445.09;4917875;29;20201;-76
2023/07/06 05:40:39;;;;;;;10.10;5.45;;;;;;;28.93;22.08;100439.94;4919055;29;20059;-83
2023/07/06 05:43:08;;;;;;;7.65;5.50;;;;;;;28.89;21.98;100437.50;4925358;29;20093;-76
2023/07/06 05:45:38;;;;;;;9.07;5.95;;;;;;;28.86;22.40;100437.66;4935441;29;20051;-79
2023/07/06 05:48:08;;;;;;;8.70;5.35;;;;;;;28.82;22.04;100440.47;4927001;29;20104;-83
2023/07/06 05:50:37;;;;;;;8.73;5.20;;;;;;;28.78;22.18;100438.06;4923836;29;20139;-85
2023/07/06 05:53:06;;;;;;;7.20;5.68;;;;;;;28.74;22.82;100437.34;4914973;29;20362;-79
2023/07/06 05:55:35;;;;;;;6.93;5.13;;;;;;;28.70;22.72;100430.47;4911981;29;20084;-79
2023/07/06 05:58:04;;;;;;;7.80;5.78;;;;;;;28.68;22.46;100437.66;4914403;29;20151;-80
2023/07/06 06:00:36;;;;;;;7.95;5.53;;;;;;;28.64;25.00;100435.25;4908595;29;20056;-79
2023/07/06 06:03:07;;;;;;;8.23;5.18;;;;;;;28.58;22.91;100437.25;4913600;29;20059;-81
2023/07/06 06:05:36;;;;;;;9.52;5.55;;;;;;;28.53;23.18;100438.44;4913151;28;20072;-80
2023/07/06 06:08:06;;;;;;;9.82;6.00;;;;;;;28.47;22.46;100433.41;4913880;29;20058;-78
2023/07/06 06:10:35;;;;;;;6.95;4.95;;;;;;;28.40;22.21;100435.47;4929742;29;20044;-81
2023/07/06 06:13:04;;;;;;;7.85;5.55;;;;;;;28.35;21.72;100437.50;4912245;29;20084;-77
2023/07/06 06:15:33;;;;;;;8.63;5.25;;;;;;;28.29;26.03;100441.34;4911090;29;20048;-78
2023/07/06 06:18:02;;;;;;;7.82;5.10;;;;;;;28.23;23.87;100438.13;4916793;29;20072;-80
2023/07/06 06:20:32;;;;;;;7.00;5.38;;;;;;;28.14;24.09;100448.28;4912491;29;20100;-79
2023/07/06 06:23:01;;;;;;;7.95;5.25;;;;;;;28.08;22.09;100442.38;4912348;29;20052;-79
2023/07/06 06:25:29;;;;;;;8.88;5.57;;;;;;;28.02;21.92;100432.91;4911030;29;20108;-81
2023/07/06 06:27:58;;;;;;;9.00;5.72;;;;;;;27.97;21.64;100445.59;4911353;29;20056;-78
2023/07/06 06:30:26;;;;;;;7.95;5.25;;;;;;;27.91;24.39;100444.06;4911932;29;20059;-80
2023/07/06 06:32:56;;;;;;;7.10;4.97;;;;;;;27.78;23.52;100446.38;4908792;29;20670;-79
2023/07/06 06:35:27;;;;;;;7.68;5.53;;;;;;;27.72;24.10;100449.34;4911368;29;20111;-78
2023/07/06 06:37:58;;;;;;;7.90;5.40;;;;;;;27.68;24.68;100453.09;4911095;29;20058;-78
2023/07/06 06:40:29;;;;;;;7.07;5.20;;;;;;;27.61;25.90;100464.94;4912896;29;20139;-79
2023/07/06 06:43:03;;;;;;;8.32;5.88;;;;;;;27.43;25.23;100461.31;4909702;29;20282;-78
2023/07/06 06:45:31;;;;;;;7.18;5.45;;;;;;;27.29;26.23;100469.91;4913967;29;20059;-79
2023/07/06 06:48:00;;;;;;;7.93;4.90;;;;;;;27.21;27.32;100472.03;4914946;29;20048;-78
2023/07/06 06:50:29;;;;;;;7.22;5.15;;;;;;;26.99;24.99;100481.88;4913351;29;20052;-78
2023/07/06 06:52:59;;;;;;;7.13;5.18;;;;;;;26.86;25.22;100471.75;4911272;29;20052;-77
2023/07/06 06:55:30;;;;;;;7.20;5.28;;;;;;;26.83;26.47;100479.84;4911767;29;20059;-80
2023/07/06 06:57:58;;;;;;;7.95;5.50;;;;;;;26.81;24.39;100473.75;4911198;29;20508;-80
2023/07/06 07:00:27;;;;;;;10.23;4.95;;;;;;;26.84;23.68;100481.56;4920466;29;20040;-80
2023/07/06 07:02:57;;;;;;;8.95;5.63;;;;;;;26.85;24.11;100491.28;4925569;29;20564;-81
2023/07/06 07:05:27;;;;;;;6.97;4.85;;;;;;;26.78;28.07;100476.53;4923413;28;20127;-77
2023/07/06 07:07:56;;;;;;;8.07;5.40;;;;;;;26.61;23.40;100481.69;4916507;29;20052;-79
2023/07/06 07:10:26;;;;;;;8.25;5.50;;;;;;;26.60;23.04;100480.81;4909240;29;20410;-78
2023/07/06 07:12:55;;;;;;;8.63;4.95;;;;;;;26.60;29.13;100482.63;4915287;29;20054;-78
2023/07/06 07:15:24;;;;;;;6.93;5.35;;;;;;;26.54;26.40;100486.34;4912525;29;20564;-77
2023/07/06 07:17:55;;;;;;;7.63;5.57;;;;;;;26.49;25.79;100486.53;4914144;29;20048;-77
2023/07/06 07:20:23;;;;;;;10.27;6.38;;;;;;;26.48;27.63;100506.03;4911622;29;20055;-78
2023/07/06 07:22:54;;;;;;;9.65;5.97;;;;;;;26.34;26.49;100495.09;4906861;29;20048;-80
2023/07/06 07:25:27;;;;;;;8.15;6.00;;;;;;;26.30;27.64;100496.16;4911594;29;20945;-77
2023/07/06 07:27:55;;;;;;;9.35;5.93;;;;;;;26.30;28.45;100493.50;4910417;29;20155;-74
2023/07/06 07:30:26;;;;;;;9.63;6.38;;;;;;;26.21;29.49;100488.59;4916878;29;20067;-77
2023/07/06 07:32:54;;;;;;;9.90;6.35;;;;;;;26.09;29.88;100493.44;4914505;29;20049;-82
2023/07/06 07:35:23;;;;;;;10.20;6.13;;;;;;;25.97;31.61;100493.91;4911829;29;20048;-77
2023/07/06 07:37:52;;;;;;;11.27;6.40;;;;;;;25.86;31.75;100514.63;4911422;29;20048;-81
2023/07/06 07:40:22;;;;;;;12.32;7.15;;;;;;;25.78;32.92;100511.41;4912702;29;20107;-78
2023/07/06 07:42:53;;;;;;;12.40;7.00;;;;;;;25.67;33.80;100503.84;4911753;29;20174;-78
2023/07/06 07:45:22;;;;;;;10.13;6.60;;;;;;;25.58;33.31;100510.34;4913503;29;20758;-79
2023/07/06 07:47:50;;;;;;;10.95;6.70;;;;;;;25.41;32.92;100513.63;4910764;29;20056;-80
2023/07/06 07:50:21;;;;;;;10.05;6.72;;;;;;;25.31;33.79;100514.84;4913004;29;20063;-77
2023/07/06 07:52:50;;;;;;;10.68;6.90;;;;;;;25.22;33.55;100518.72;4924774;29;20055;-80
2023/07/06 07:55:20;;;;;;;12.60;6.88;;;;;;;25.10;34.75;100508.50;4915655;29;20041;-76
2023/07/06 07:57:48;;;;;;;12.57;6.78;;;;;;;24.91;34.29;100508.25;4911649;29;20040;-79
2023/07/06 08:00:21;;;;;;;10.77;7.20;;;;;;;24.84;35.40;100518.19;4910514;29;20064;-80
2023/07/06 08:02:52;;;;;;;10.48;7.10;;;;;;;24.77;35.25;100515.81;4912523;29;20509;-75
2023/07/06 08:05:21;;;;;;;11.10;6.80;;;;;;;24.71;36.75;100523.94;4911063;28;20055;-79
2023/07/06 08:07:50;;;;;;;12.50;6.53;;;;;;;24.58;36.54;100526.09;4905972;29;20055;-77
2023/07/06 08:10:18;;;;;;;9.88;6.60;;;;;;;24.38;36.19;100518.78;4908056;29;20053;-78
2023/07/06 08:12:49;;;;;;;13.65;6.95;;;;;;;24.31;36.76;100527.84;4916095;29;20056;-81
2023/07/06 08:15:20;;;;;;;11.85;7.28;;;;;;;24.20;37.13;100520.22;4912838;29;20373;-79
2023/07/06 08:17:48;;;;;;;10.50;6.82;;;;;;;24.12;37.21;100532.78;4910738;29;20047;-80
2023/07/06 08:20:17;;;;;;;11.18;7.05;;;;;;;24.11;37.79;100528.44;4908437;29;20063;-76
2023/07/06 08:22:46;;;;;;;10.35;6.15;;;;;;;24.10;37.90;100529.31;4908491;29;20056;-80
2023/07/06 08:25:15;;;;;;;12.05;6.53;;;;;;;24.10;37.70;100519.66;4916422;29;20082;-78
2023/07/06 08:27:43;;;;;;;12.43;7.20;;;;;;;24.11;37.76;100520.50;4908074;29;20059;-78
2023/07/06 08:30:12;;;;;;;12.25;6.60;;;;;;;24.04;38.62;100515.41;4912546;29;20044;-77
2023/07/06 08:32:42;;;;;;;10.38;6.43;;;;;;;23.93;38.67;100527.19;4911955;29;20056;-80
2023/07/06 08:35:12;;;;;;;11.00;6.53;;;;;;;23.82;39.15;100525.75;4912670;29;20079;-80
2023/07/06 08:37:41;;;;;;;10.10;6.18;;;;;;;23.74;39.51;100533.03;4908696;29;20048;-81
2023/07/06 08:40:17;;;;;;;9.13;6.28;;;;;;;23.71;39.42;100532.19;4908039;29;20127;-78
2023/07/06 08:42:48;;;;;;;14.35;6.88;;;;;;;23.69;39.16;100534.03;4911942;29;20052;-80
2023/07/06 08:45:19;;;;;;;14.30;7.63;;;;;;;23.63;39.11;100533.28;4924240;29;20052;-79
2023/07/06 08:47:52;;;;;;;11.10;6.78;;;;;;;23.56;39.61;100534.38;4915475;29;20059;-79
2023/07/06 08:50:28;;;;;;;15.82;6.72;;;;;;;23.48;39.73;100536.38;4915199;29;20159;-78
2023/07/06 08:52:58;;;;;;;12.57;6.78;;;;;;;23.44;39.75;100540.00;4915855;29;20039;-79
2023/07/06 08:55:26;;;;;;;12.18;6.72;;;;;;;23.38;40.71;100541.00;4920672;29;20059;-78
2023/07/06 08:57:55;;;;;;;13.48;6.97;;;;;;;23.26;40.87;100541.34;4913467;29;20487;-79
2023/07/06 09:00:27;;;;;;;9.90;6.00;;;;;;;23.17;40.64;100537.16;4912824;29;20140;-77
2023/07/06 09:02:59;;;;;;;12.45;6.93;;;;;;;23.10;41.48;100540.88;4914305;29;20062;-78
2023/07/06 09:05:31;;;;;;;9.50;5.70;;;;;;;23.07;41.66;100545.38;4914109;28;20056;-77
2023/07/06 09:08:00;;;;;;;11.73;6.72;;;;;;;23.00;42.06;100542.03;4916266;29;20135;-78
2023/07/06 09:10:31;;;;;;;12.15;6.45;;;;;;;22.98;41.30;100543.81;4911594;29;20056;-78
2023/07/06 09:13:16;;;;;;;10.02;6.20;;;;;;;22.95;40.69;100543.88;4913386;29;20636;-79
2023/07/06 09:15:48;;;;;;;11.30;6.57;;;;;;;22.91;40.21;100542.22;4915462;29;20139;-79
2023/07/06 09:18:18;;;;;;;;;;;;;;;22.80;40.93;100542.50;4916760;29;20052;-78
2023/07/06 09:20:49;;;;;;;11.70;6.25;;;;;;;22.65;41.48;100543.72;4910166;29;20365;-79
2023/07/06 09:23:18;;;;;;;11.20;6.90;;;;;;;22.54;42.10;100543.09;4908938;29;20062;-77
2023/07/06 09:25:49;;;;;;;12.85;7.13;;;;;;;22.40;42.32;100538.13;4912666;29;20044;-79
2023/07/06 09:28:21;;;;;;;11.20;6.18;;;;;;;22.34;42.49;100538.31;4915230;29;20060;-79
2023/07/06 09:30:50;;;;;;;;;;;;;;;22.28;42.86;100541.06;4913415;29;20070;-80
2023/07/06 09:33:24;;;;;;;11.98;6.32;;;;;;;22.23;42.86;100535.88;4913040;29;19978;-80
2023/07/06 09:35:54;;;;;;;12.93;6.30;;;;;;;22.17;42.64;100549.16;4919216;29;20058;-80
2023/07/06 09:38:25;;;;;;;10.90;6.25;;;;;;;22.11;41.46;100546.69;4925732;29;20048;-80
2023/07/06 09:40:55;;;;;;;9.23;5.10;;;;;;;22.05;41.92;100547.66;4916018;29;20055;-78
2023/07/06 09:43:27;;;;;;;8.43;4.60;;;;;;;21.98;41.79;100540.78;4913943;29;20048;-79
2023/07/06 09:45:59;;;;;;;10.05;4.60;;;;;;;21.87;41.65;100551.53;4913953;29;20063;-78
2023/07/06 09:48:33;;;;;;;;;;;;;;;21.80;41.73;100547.28;4920276;29;20067;-77
2023/07/06 09:51:11;;;;;;;8.68;5.18;;;;;;;21.78;42.31;100553.50;4907997;29;19946;-78
2023/07/06 09:53:48;;;;;;;8.10;4.15;;;;;;;21.68;43.16;100552.81;4911274;29;20059;-77
2023/07/06 09:56:17;;;;;;;9.10;5.68;;;;;;;21.58;42.77;100556.50;4915074;29;20064;-75
2023/07/06 09:58:49;;;;;;;10.63;6.25;;;;;;;21.45;43.38;100551.50;4911973;29;20647;-75
2023/07/06 10:01:29;;;;;;;10.18;5.75;;;;;;;21.36;43.42;100562.16;4907375;29;20623;-77
2023/07/06 10:04:09;;;;;;;9.80;6.13;;;;;;;21.26;43.41;100544.81;4912818;29;20052;-76
2023/07/06 10:07:05;;;;;;;15.57;5.03;;;;;;;21.09;44.24;100552.97;4909592;29;20068;-78
2023/07/06 10:09:38;;;;;;;10.80;6.35;;;;;;;21.02;44.37;100552.22;4911980;29;20063;-77
2023/07/06 10:12:18;;;;;;;10.98;6.80;;;;;;;20.90;43.97;100547.16;4911212;29;20611;-78
2023/07/06 10:14:51;;;;;;;10.10;5.38;;;;;;;20.85;44.31;100560.38;4910031;29;20143;-78
2023/07/06 10:17:37;;;;;;;8.25;5.07;;;;;;;20.82;44.18;100549.03;4911739;29;20221;-78
2023/07/06 10:20:17;;;;;;;7.60;4.63;;;;;;;20.82;44.21;100559.56;4907451;29;20075;-77
2023/07/06 10:23:04;;;;;;;8.88;5.03;;;;;;;20.72;44.55;100553.59;4910915;29;20489;-77
2023/07/06 10:25:37;;;;;;;8.18;4.85;;;;;;;20.67;44.72;100558.06;4912517;29;20055;-77
2023/07/06 10:28:11;;;;;;;8.43;3.95;;;;;;;20.64;45.21;100556.34;4918900;29;20044;-78
2023/07/06 10:30:46;;;;;;;8.45;4.88;;;;;;;20.62;45.41;100560.75;4921385;29;20063;-77
2023/07/06 10:33:18;;;;;;;8.18;4.88;;;;;;;20.60;45.48;100564.28;4916473;29;20528;-77
2023/07/06 10:35:50;;;;;;;8.95;4.63;;;;;;;20.55;45.74;100564.34;4914882;29;20048;-77
2023/07/06 10:38:19;;;;;;;10.55;4.93;;;;;;;20.49;45.97;100564.41;4912600;29;20060;-77
2023/07/06 10:40:52;;;;;;;8.85;5.55;;;;;;;20.43;46.39;100556.59;4911328;29;20059;-77
2023/07/06 10:43:23;;;;;;;11.70;4.72;;;;;;;20.35;47.48;100561.13;4912536;29;20057;-76
2023/07/06 10:46:06;;;;;;;9.80;5.35;;;;;;;20.26;47.63;100560.34;4911428;29;20055;-76
2023/07/06 10:48:37;;;;;;;8.75;4.40;;;;;;;20.23;49.13;100567.41;4909928;29;20465;-76
2023/07/06 10:51:20;;;;;;;8.15;4.45;;;;;;;20.17;48.95;100570.97;4909163;29;20052;-78
2023/07/06 10:54:03;;;;;;;10.80;4.80;;;;;;;20.02;48.22;100571.16;4911439;29;20052;-78
2023/07/06 10:56:40;;;;;;;8.77;4.80;;;;;;;19.85;48.07;100574.84;4913514;29;20055;-78
2023/07/06 10:59:18;;;;;;;7.60;4.63;;;;;;;19.71;47.99;100570.66;4912256;29;20143;-78
2023/07/06 11:01:48;;;;;;;9.15;5.22;;;;;;;19.69;48.68;100575.06;4911040;29;20142;-77
2023/07/06 11:04:52;;;;;;;10.90;5.20;;;;;;;19.68;48.22;100568.91;4913510;29;20060;-79
2023/07/06 11:07:44;;;;;;;11.30;4.68;;;;;;;19.71;48.40;100570.66;4889232;29;20467;-78
2023/07/06 11:10:43;;;;;;;9.38;4.82;;;;;;;19.69;48.73;100573.28;4888035;29;20079;-79
2023/07/06 11:13:20;;;;;;;11.25;5.50;;;;;;;19.66;48.25;100570.69;4890435;29;20725;-79
2023/07/06 11:15:59;;;;;;;9.35;4.63;;;;;;;19.63;48.97;100573.31;4890489;29;20107;-77
2023/07/06 11:18:36;;;;;;;12.40;4.57;;;;;;;19.63;48.99;100573.31;4890045;29;20147;-78
2023/07/06 11:21:16;;;;;;;8.02;4.88;;;;;;;19.60;49.36;100574.22;4890472;29;20065;-76
2023/07/06 11:23:50;;;;;;;7.38;4.18;;;;;;;19.55;49.75;100572.53;4902008;29;20506;-76
2023/07/06 11:26:37;;;;;;;8.95;4.35;;;;;;;19.48;50.17;100569.13;4891347;29;20112;-77
2023/07/06 11:29:08;;;;;;;10.70;4.68;;;;;;;19.40;50.88;100578.81;4886203;29;20447;-78
2023/07/06 11:31:48;;;;;;;9.18;4.50;;;;;;;19.30;50.70;100574.53;4889950;29;20088;-77
2023/07/06 11:34:28;;;;;;;7.78;4.13;;;;;;;19.15;50.70;100579.06;4890486;29;20049;-77
2023/07/06 11:37:04;;;;;;;11.38;4.85;;;;;;;19.00;51.27;100577.41;4894022;29;20049;-77
2023/07/06 11:39:44;;;;;;;7.40;4.13;;;;;;;18.86;51.56;100574.03;4889082;29;20065;-78
2023/07/06 11:42:30;;;;;;;8.65;3.80;;;;;;;18.80;51.60;100579.31;4883224;29;20132;-77
2023/07/06 11:45:03;;;;;;;10.50;4.50;;;;;;;18.78;52.51;100581.97;4886508;29;20097;-77
2023/07/06 11:47:46;;;;;;;8.75;4.70;;;;;;;18.75;52.32;100581.94;4889757;29;20629;-76
2023/07/06 11:50:16;;;;;;;;;;;;;;;18.73;52.65;100582.81;4886634;29;20060;-77